createdAt,value
2023-02-05T00:00:53.598Z,-2.40
2023-02-05T00:03:22.418Z,-2.40
2023-02-05T00:05:51.193Z,-2.50
2023-02-05T00:08:20.071Z,-2.50
2023-02-05T00:10:53.328Z,-2.40
2023-02-05T00:13:22.110Z,-2.30
2023-02-05T00:15:50.917Z,-2.30
2023-02-05T00:18:21.302Z,-2.40
2023-02-05T00:20:50.096Z,-2.40
2023-02-05T00:23:19.004Z,-2.50
2023-02-05T00:25:47.754Z,-2.50
2023-02-05T00:28:16.566Z,-2.60
2023-02-05T00:30:45.380Z,-2.70
2023-02-05T00:33:14.302Z,-2.70
2023-02-05T00:35:45.965Z,-2.60
2023-02-05T00:38:15.439Z,-2.60
2023-02-05T00:40:44.486Z,-2.50
2023-02-05T00:43:13.273Z,-2.60
2023-02-05T00:45:42.066Z,-2.70
2023-02-05T00:48:11.204Z,-2.60
2023-02-05T00:50:40.804Z,-2.70
2023-02-05T00:53:10.915Z,-2.70
2023-02-05T00:55:39.708Z,-2.70
2023-02-05T00:58:08.485Z,-2.70
2023-02-05T01:00:37.797Z,-2.70
2023-02-05T01:03:06.850Z,-2.80
2023-02-05T01:05:36.179Z,-2.80
2023-02-05T01:08:07.086Z,-3.00
2023-02-05T01:10:39.013Z,-3.10
2023-02-05T01:13:08.106Z,-3.30
2023-02-05T01:15:37.293Z,-3.40
2023-02-05T01:18:06.801Z,-3.40
2023-02-05T01:20:38.311Z,-3.50
2023-02-05T01:23:07.341Z,-3.60
2023-02-05T01:25:37.481Z,-3.60
2023-02-05T01:28:07.494Z,-3.70
2023-02-05T01:30:36.833Z,-3.70
2023-02-05T01:33:05.857Z,-3.90
2023-02-05T01:35:35.165Z,-4.00
2023-02-05T01:38:04.379Z,-4.00
2023-02-05T01:40:33.177Z,-4.00
2023-02-05T01:43:03.319Z,-4.10
2023-02-05T01:46:05.113Z,-4.10
2023-02-05T01:48:37.108Z,-4.10
2023-02-05T01:51:08.026Z,-4.20
2023-02-05T01:53:37.842Z,-4.20
2023-02-05T01:56:11.540Z,-4.30
2023-02-05T01:58:47.076Z,-4.30
2023-02-05T02:01:16.111Z,-4.30
2023-02-05T02:03:45.553Z,-4.30
2023-02-05T02:06:14.382Z,-4.30
2023-02-05T02:08:43.158Z,-4.40
2023-02-05T02:11:17.124Z,-4.40
2023-02-05T02:13:49.998Z,-4.50
2023-02-05T02:16:19.502Z,-4.50
2023-02-05T02:18:48.718Z,-4.60
2023-02-05T02:22:05.139Z,-4.60
2023-02-05T02:25:06.346Z,-4.60
2023-02-05T02:27:44.528Z,-4.60
2023-02-05T02:30:23.131Z,-4.70
2023-02-05T02:32:59.871Z,-4.60
2023-02-05T02:35:33.887Z,-4.60
2023-02-05T02:38:10.072Z,-4.70
2023-02-05T02:40:43.142Z,-4.80
2023-02-05T02:43:18.183Z,-4.80
2023-02-05T02:45:52.731Z,-4.90
2023-02-05T02:48:24.817Z,-5.00
2023-02-05T02:50:56.500Z,-5.00
2023-02-05T02:53:28.998Z,-5.00
2023-02-05T02:55:59.774Z,-5.10
2023-02-05T02:58:36.240Z,-5.10
2023-02-05T03:01:07.104Z,-5.20
2023-02-05T03:03:39.667Z,-5.20
2023-02-05T03:06:11.679Z,-5.30
2023-02-05T03:08:47.387Z,-5.30
2023-02-05T03:11:17.268Z,-5.20
2023-02-05T03:13:48.473Z,-5.30
2023-02-05T03:16:21.525Z,-5.30
2023-02-05T03:18:51.358Z,-5.30
2023-02-05T03:21:25.578Z,-5.20
2023-02-05T03:23:54.296Z,-5.20
2023-02-05T03:26:27.882Z,-5.30
2023-02-05T03:29:08.264Z,-5.30
2023-02-05T03:31:48.485Z,-5.30
2023-02-05T03:34:28.701Z,-5.30
2023-02-05T03:37:05.879Z,-5.20
2023-02-05T03:39:47.017Z,-5.30
2023-02-05T03:42:29.333Z,-5.20
2023-02-05T03:45:19.822Z,-5.30
2023-02-05T03:48:03.854Z,-5.30
2023-02-05T03:50:39.190Z,-5.40
2023-02-05T03:53:18.251Z,-5.40
2023-02-05T03:55:52.100Z,-5.40
2023-02-05T03:58:25.847Z,-5.50
2023-02-05T04:00:56.111Z,-5.50
2023-02-05T04:03:24.973Z,-5.50
2023-02-05T04:05:54.682Z,-5.40
2023-02-05T04:08:23.412Z,-5.40
2023-02-05T04:10:54.910Z,-5.40
2023-02-05T04:13:24.140Z,-5.50
2023-02-05T04:15:55.213Z,-5.40
2023-02-05T04:18:24.238Z,-5.40
2023-02-05T04:20:53.097Z,-5.30
2023-02-05T04:23:25.693Z,-5.20
2023-02-05T04:25:55.154Z,-5.20
2023-02-05T04:28:30.463Z,-5.30
2023-02-05T04:31:00.909Z,-5.30
2023-02-05T04:33:29.966Z,-5.40
2023-02-05T04:35:59.971Z,-5.40
2023-02-05T04:38:29.074Z,-5.40
2023-02-05T04:40:59.192Z,-5.50
2023-02-05T04:43:28.129Z,-5.50
2023-02-05T04:45:56.867Z,-5.60
2023-02-05T04:48:27.031Z,-5.50
2023-02-05T04:50:55.752Z,-5.50
2023-02-05T04:53:24.491Z,-5.50
2023-02-05T04:55:54.966Z,-5.60
2023-02-05T04:58:23.739Z,-5.60
2023-02-05T05:00:52.504Z,-5.60
2023-02-05T05:03:21.262Z,-5.60
2023-02-05T05:05:52.081Z,-5.60
2023-02-05T05:08:20.903Z,-5.60
2023-02-05T05:10:49.707Z,-5.70
2023-02-05T05:13:18.428Z,-5.70
2023-02-05T05:15:47.266Z,-5.70
2023-02-05T05:18:16.040Z,-5.60
2023-02-05T05:20:44.835Z,-5.50
2023-02-05T05:23:15.086Z,-5.50
2023-02-05T05:25:44.055Z,-5.60
2023-02-05T05:28:13.996Z,-5.70
2023-02-05T05:30:44.850Z,-5.70
2023-02-05T05:33:13.870Z,-5.70
2023-02-05T05:35:42.639Z,-5.70
2023-02-05T05:38:12.449Z,-5.80
2023-02-05T05:41:00.279Z,-5.90
2023-02-05T05:43:46.467Z,-5.80
2023-02-05T05:46:16.778Z,-5.80
2023-02-05T05:48:45.583Z,-5.80
2023-02-05T05:51:14.343Z,-5.80
2023-02-05T05:53:43.169Z,-5.80
2023-02-05T05:56:13.417Z,-5.80
2023-02-05T05:58:42.210Z,-5.70
2023-02-05T06:01:12.195Z,-5.60
2023-02-05T06:03:41.054Z,-5.60
2023-02-05T06:06:13.074Z,-5.60
2023-02-05T06:08:42.182Z,-5.60
2023-02-05T06:11:12.471Z,-5.50
2023-02-05T06:13:41.893Z,-5.50
2023-02-05T06:16:10.743Z,-5.50
2023-02-05T06:18:39.597Z,-5.50
2023-02-05T06:21:08.375Z,-5.40
2023-02-05T06:23:37.114Z,-5.40
2023-02-05T06:26:06.193Z,-5.40
2023-02-05T06:28:36.504Z,-5.40
2023-02-05T06:31:05.684Z,-5.40
2023-02-05T06:33:34.421Z,-5.30
2023-02-05T06:36:03.265Z,-5.40
2023-02-05T06:38:31.987Z,-5.30
2023-02-05T06:41:00.791Z,-5.30
2023-02-05T06:43:29.502Z,-5.30
2023-02-05T06:45:59.692Z,-5.30
2023-02-05T06:48:28.503Z,-5.20
2023-02-05T06:50:57.228Z,-5.20
2023-02-05T06:53:26.035Z,-5.10
2023-02-05T06:55:58.507Z,-5.00
2023-02-05T06:58:27.332Z,-4.90
2023-02-05T07:00:56.201Z,-4.70
2023-02-05T07:03:26.309Z,-4.60
2023-02-05T07:05:55.154Z,-4.50
2023-02-05T07:08:23.955Z,-4.40
2023-02-05T07:10:52.818Z,-4.40
2023-02-05T07:13:21.570Z,-4.20
2023-02-05T07:15:50.753Z,-4.10
2023-02-05T07:18:19.526Z,-3.90
2023-02-05T07:20:49.700Z,-3.80
2023-02-05T07:23:18.733Z,-3.70
2023-02-05T07:25:47.475Z,-3.60
2023-02-05T07:28:16.387Z,-3.60
2023-02-05T07:30:45.166Z,-3.50
2023-02-05T07:33:13.900Z,-3.40
2023-02-05T07:35:42.664Z,-3.30
2023-02-05T07:38:14.168Z,-3.30
2023-02-05T07:40:42.920Z,-3.20
2023-02-05T07:43:11.663Z,-3.20
2023-02-05T07:45:40.429Z,-3.10
2023-02-05T07:48:09.267Z,-3.10
2023-02-05T07:50:37.983Z,-2.90
2023-02-05T07:53:06.903Z,-2.90
2023-02-05T07:55:37.576Z,-2.90
2023-02-05T07:58:06.482Z,-2.80
2023-02-05T08:00:35.392Z,-2.70
2023-02-05T08:03:04.435Z,-2.80
2023-02-05T08:05:33.994Z,-2.60
2023-02-05T08:08:03.123Z,-2.60
2023-02-05T08:10:31.981Z,-2.40
2023-02-05T08:13:02.147Z,-2.30
2023-02-05T08:15:30.942Z,-2.20
2023-02-05T08:17:59.712Z,-2.10
2023-02-05T08:20:28.574Z,-2.10
2023-02-05T08:22:57.383Z,-1.80
2023-02-05T08:25:26.186Z,-1.90
2023-02-05T08:27:55.002Z,-1.90
2023-02-05T08:30:25.493Z,-1.90
2023-02-05T08:32:54.281Z,-1.70
2023-02-05T08:35:23.022Z,-1.50
2023-02-05T08:37:51.872Z,-1.50
2023-02-05T08:40:20.899Z,-1.40
2023-02-05T08:42:52.736Z,-1.20
2023-02-05T08:45:21.591Z,-0.90
2023-02-05T08:47:52.163Z,-0.80
2023-02-05T08:50:21.282Z,-0.80
2023-02-05T08:52:50.905Z,-0.90
2023-02-05T08:55:19.859Z,-0.70
2023-02-05T08:57:48.616Z,-0.60
2023-02-05T09:00:18.124Z,-0.50
2023-02-05T09:02:46.909Z,-0.80
2023-02-05T09:05:17.092Z,-0.80
2023-02-05T09:07:45.907Z,-0.80
2023-02-05T09:10:15.335Z,-0.60
2023-02-05T09:12:44.155Z,-0.40
2023-02-05T09:15:12.921Z,-0.50
2023-02-05T09:17:41.764Z,-0.60
2023-02-05T09:20:12.196Z,-0.50
2023-02-05T09:22:42.359Z,-0.30
2023-02-05T09:25:12.179Z,-0.10
2023-02-05T09:27:40.934Z,-0.40
2023-02-05T09:30:10.932Z,-0.30
2023-02-05T09:32:39.736Z,0.00
2023-02-05T09:35:08.719Z,0.10
2023-02-05T09:37:39.232Z,0.20
2023-02-05T09:40:21.242Z,0.20
2023-02-05T09:43:00.574Z,0.30
2023-02-05T09:45:47.480Z,0.40
2023-02-05T09:48:49.427Z,0.60
2023-02-05T09:51:21.518Z,0.80
2023-02-05T09:53:55.072Z,0.60
2023-02-05T09:56:27.972Z,0.70
2023-02-05T09:58:58.877Z,0.70
2023-02-05T10:01:37.158Z,0.70
2023-02-05T10:04:07.997Z,0.60
2023-02-05T10:06:50.413Z,0.60
2023-02-05T10:09:37.210Z,0.60
2023-02-05T10:12:20.769Z,0.50
2023-02-05T10:15:02.578Z,0.70
2023-02-05T10:17:45.256Z,0.80
2023-02-05T10:20:26.775Z,0.70
2023-02-05T10:23:10.569Z,0.80
2023-02-05T10:25:50.353Z,1.00
2023-02-05T10:28:54.280Z,1.10
2023-02-05T10:31:37.000Z,1.10
2023-02-05T10:34:18.940Z,1.10
2023-02-05T10:36:52.386Z,1.00
2023-02-05T10:39:26.078Z,0.90
2023-02-05T10:41:59.497Z,0.70
2023-02-05T10:44:33.694Z,0.50
2023-02-05T10:47:09.308Z,0.50
2023-02-05T10:49:48.618Z,0.50
2023-02-05T10:52:18.267Z,0.60
2023-02-05T10:54:47.646Z,0.60
2023-02-05T10:57:18.803Z,0.60
2023-02-05T10:59:54.514Z,0.70
2023-02-05T11:02:26.309Z,0.70
2023-02-05T11:04:59.316Z,0.80
2023-02-05T11:07:35.310Z,0.80
2023-02-05T11:10:15.953Z,0.70
2023-02-05T11:12:46.418Z,0.70
2023-02-05T11:15:26.129Z,0.60
2023-02-05T11:17:57.969Z,0.60
2023-02-05T11:20:30.458Z,0.80
2023-02-05T11:23:18.678Z,0.90
2023-02-05T11:25:52.588Z,0.90
2023-02-05T11:28:25.077Z,0.90
2023-02-05T11:30:55.659Z,0.90
2023-02-05T11:33:31.330Z,1.00
2023-02-05T11:36:03.371Z,1.30
2023-02-05T11:38:39.617Z,1.40
2023-02-05T11:41:11.052Z,1.30
2023-02-05T11:43:46.976Z,1.20
2023-02-05T11:46:20.960Z,1.30
2023-02-05T11:48:57.263Z,1.60
2023-02-05T11:51:44.643Z,2.10
2023-02-05T11:54:20.905Z,2.30
2023-02-05T11:57:05.082Z,2.70
2023-02-05T11:59:34.542Z,3.10
2023-02-05T12:02:31.678Z,2.80
2023-02-05T12:05:10.783Z,2.80
2023-02-05T12:07:44.030Z,2.60
2023-02-05T12:10:19.686Z,2.30
2023-02-05T12:13:00.841Z,2.10
2023-02-05T12:15:37.409Z,1.90
2023-02-05T12:18:22.766Z,1.60
2023-02-05T12:21:05.185Z,1.50
2023-02-05T12:23:57.952Z,1.20
2023-02-05T12:26:34.989Z,1.10
2023-02-05T12:29:27.807Z,1.00
2023-02-05T12:32:04.754Z,1.00
2023-02-05T12:47:10.267Z,1.10
2023-02-05T12:49:56.194Z,1.20
2023-02-05T12:52:38.070Z,1.10
2023-02-05T12:55:20.561Z,1.00
2023-02-05T12:57:54.367Z,1.00
2023-02-05T13:00:27.276Z,0.90
2023-02-05T13:03:06.915Z,1.10
2023-02-05T13:05:40.712Z,1.00
2023-02-05T13:08:17.003Z,1.00
2023-02-05T13:10:51.859Z,1.00
2023-02-05T13:13:25.788Z,1.10
2023-02-05T13:16:02.320Z,0.90
2023-02-05T13:18:36.493Z,1.00
2023-02-05T13:21:25.757Z,0.90
2023-02-05T13:24:26.463Z,0.70
2023-02-05T13:40:18.892Z,0.90
2023-02-05T13:43:09.069Z,1.80
2023-02-05T13:46:14.339Z,1.70
2023-02-05T13:49:33.738Z,1.40
2023-02-05T13:52:29.578Z,1.20
2023-02-05T13:55:32.086Z,1.40
2023-02-05T13:58:21.978Z,1.80
2023-02-05T14:00:59.829Z,1.60
2023-02-05T14:03:35.324Z,1.00
2023-02-05T14:06:23.133Z,0.90
2023-02-05T14:08:59.888Z,1.10
2023-02-05T14:11:35.572Z,1.00
2023-02-05T14:14:30.247Z,1.00
2023-02-05T14:17:01.125Z,0.90
2023-02-05T14:19:57.056Z,0.90
2023-02-05T14:22:38.219Z,1.00
2023-02-05T14:46:30.848Z,1.10
2023-02-05T14:49:02.005Z,0.90
2023-02-05T14:51:35.599Z,0.60
2023-02-05T14:54:07.394Z,0.50
2023-02-05T14:56:44.841Z,0.30
2023-02-05T14:59:22.472Z,0.20
2023-02-05T15:01:54.532Z,0.10
2023-02-05T15:04:44.217Z,0.10
2023-02-05T15:07:16.489Z,-0.10
2023-02-05T15:09:50.196Z,-0.20
2023-02-05T15:12:38.283Z,-0.20
2023-02-05T15:15:33.360Z,-0.20
2023-02-05T15:18:21.499Z,-0.30
2023-02-05T15:20:52.698Z,-0.50
2023-02-05T15:23:36.738Z,-0.50
2023-02-05T15:26:08.123Z,-0.60
2023-02-05T15:28:40.951Z,-0.70
2023-02-05T15:31:27.238Z,-0.80
2023-02-05T15:34:03.207Z,-0.90
2023-02-05T15:36:36.798Z,-1.00
2023-02-05T15:39:21.709Z,-1.20
2023-02-05T15:41:50.563Z,-1.20
2023-02-05T15:44:23.072Z,-1.30
2023-02-05T15:46:52.342Z,-1.40
2023-02-05T15:49:29.596Z,-1.50
2023-02-05T15:51:58.872Z,-1.60
2023-02-05T15:54:27.871Z,-1.60
2023-02-05T15:56:57.892Z,-1.70
2023-02-05T15:59:30.362Z,-1.80
2023-02-05T16:02:06.426Z,-1.90
2023-02-05T16:04:38.414Z,-1.90
2023-02-05T16:07:21.969Z,-1.90
2023-02-05T16:09:54.040Z,-2.00
2023-02-05T16:12:22.964Z,-2.10
2023-02-05T16:15:00.178Z,-2.20
2023-02-05T16:17:35.868Z,-2.20
2023-02-05T16:20:16.832Z,-2.20
2023-02-05T16:22:52.514Z,-2.30
2023-02-05T16:25:33.471Z,-2.30
2023-02-05T16:28:06.516Z,-2.30
2023-02-05T16:30:40.527Z,-2.20
2023-02-05T16:33:15.963Z,-2.20
2023-02-05T16:35:49.385Z,-2.30
2023-02-05T16:38:20.369Z,-2.30
2023-02-05T16:40:52.010Z,-2.30
2023-02-05T16:43:30.070Z,-2.30
2023-02-05T16:46:24.810Z,-2.40
2023-02-05T16:48:55.420Z,-2.40
2023-02-05T16:51:35.500Z,-2.50
2023-02-05T16:54:20.178Z,-2.50
2023-02-05T16:56:53.813Z,-2.40
2023-02-05T16:59:25.051Z,-2.20
2023-02-05T17:01:54.720Z,-2.00
2023-02-05T17:04:27.694Z,-1.90
2023-02-05T17:07:01.108Z,-2.00
2023-02-05T17:09:34.533Z,-2.00
2023-02-05T17:12:26.080Z,-2.10
2023-02-05T17:14:57.122Z,-2.00
2023-02-05T17:17:26.914Z,-2.10
2023-02-05T17:20:08.209Z,-2.20
2023-02-05T17:22:38.396Z,-2.00
2023-02-05T17:25:07.879Z,-1.90
2023-02-05T17:27:39.095Z,-2.10
2023-02-05T17:30:16.666Z,-2.20
2023-02-05T17:32:46.888Z,-2.30
2023-02-05T17:35:16.905Z,-2.40
2023-02-05T17:37:47.106Z,-2.40
2023-02-05T17:40:16.402Z,-2.50
2023-02-05T17:42:46.392Z,-2.50
2023-02-05T17:45:19.564Z,-2.40
2023-02-05T17:47:48.887Z,-2.40
2023-02-05T17:50:18.171Z,-2.40
2023-02-05T17:52:48.405Z,-2.50
2023-02-05T17:55:19.251Z,-2.50
2023-02-05T17:57:48.326Z,-2.50
2023-02-05T18:00:19.249Z,-2.60
2023-02-05T18:02:48.211Z,-2.60
2023-02-05T18:05:18.963Z,-2.60
2023-02-05T18:07:52.003Z,-2.60
2023-02-05T18:10:23.347Z,-2.60
2023-02-05T18:12:52.237Z,-2.70
2023-02-05T18:15:21.247Z,-2.70
2023-02-05T18:17:50.062Z,-2.70
2023-02-05T18:20:21.030Z,-2.70
2023-02-05T18:22:51.392Z,-2.80
2023-02-05T18:25:20.256Z,-2.80
2023-02-05T18:27:50.283Z,-2.80
2023-02-05T18:30:19.531Z,-2.80
2023-02-05T18:32:48.259Z,-2.90
2023-02-05T18:35:17.127Z,-2.90
2023-02-05T18:37:45.957Z,-2.90
2023-02-05T18:40:16.325Z,-2.90
2023-02-05T18:42:47.081Z,-3.00
2023-02-05T18:45:15.919Z,-2.90
2023-02-05T18:47:44.635Z,-3.00
2023-02-05T18:50:13.508Z,-3.00
2023-02-05T18:52:42.250Z,-2.90
2023-02-05T18:55:12.417Z,-3.00
2023-02-05T18:57:42.644Z,-3.00
2023-02-05T19:00:12.503Z,-3.20
2023-02-05T19:02:41.738Z,-3.20
2023-02-05T19:05:11.583Z,-3.20
2023-02-05T19:07:40.288Z,-3.10
2023-02-05T19:10:09.308Z,-3.20
2023-02-05T19:12:38.047Z,-3.20
2023-02-05T19:15:09.322Z,-3.20
2023-02-05T19:17:38.052Z,-3.10
2023-02-05T19:20:07.652Z,-3.10
2023-02-05T19:22:36.403Z,-3.20
2023-02-05T19:25:05.276Z,-3.10
2023-02-05T19:27:34.034Z,-3.00
2023-02-05T19:30:02.964Z,-2.90
2023-02-05T19:32:33.357Z,-3.00
2023-02-05T19:35:03.885Z,-3.00
2023-02-05T19:37:32.936Z,-3.10
2023-02-05T19:40:01.660Z,-3.00
2023-02-05T19:42:30.385Z,-3.00
2023-02-05T19:44:59.171Z,-3.00
2023-02-05T19:47:29.378Z,-2.90
2023-02-05T19:49:59.500Z,-2.90
2023-02-05T19:52:28.274Z,-2.90
2023-02-05T19:54:56.990Z,-2.90
2023-02-05T19:57:26.058Z,-2.80
2023-02-05T19:59:54.767Z,-2.70
2023-02-05T20:02:23.994Z,-2.70
2023-02-05T20:04:52.776Z,-2.80
2023-02-05T20:07:22.956Z,-2.80
2023-02-05T20:09:51.731Z,-2.70
2023-02-05T20:12:20.475Z,-2.70
2023-02-05T20:14:49.278Z,-2.70
2023-02-05T20:17:18.816Z,-2.60
2023-02-05T20:19:47.634Z,-2.70
2023-02-05T20:22:16.407Z,-2.60
2023-02-05T20:24:47.238Z,-2.70
2023-02-05T20:27:16.030Z,-2.70
2023-02-05T20:30:01.959Z,-2.70
2023-02-05T20:32:31.279Z,-2.70
2023-02-05T20:35:00.004Z,-2.70
2023-02-05T20:37:28.788Z,-2.70
2023-02-05T20:39:58.922Z,-2.70
2023-02-05T20:42:27.822Z,-2.70
2023-02-05T20:44:57.214Z,-2.80
2023-02-05T20:47:25.994Z,-2.80
2023-02-05T20:49:54.718Z,-2.70
2023-02-05T20:52:23.551Z,-2.80
2023-02-05T20:54:54.443Z,-2.80
2023-02-05T20:57:24.628Z,-2.90
2023-02-05T20:59:53.422Z,-2.90
2023-02-05T21:02:23.642Z,-2.90
2023-02-05T21:04:52.906Z,-2.80
2023-02-05T21:07:25.134Z,-2.80
2023-02-05T21:09:54.845Z,-2.90
2023-02-05T21:12:29.246Z,-2.90
2023-02-05T21:14:58.022Z,-2.90
2023-02-05T21:17:26.772Z,-2.90
2023-02-05T21:19:55.624Z,-3.10
2023-02-05T21:22:25.049Z,-3.00
2023-02-05T21:24:53.891Z,-3.20
2023-02-05T21:27:25.109Z,-3.20
2023-02-05T21:29:53.984Z,-3.20
2023-02-05T21:32:22.714Z,-3.10
2023-02-05T21:34:52.247Z,-3.00
2023-02-05T21:37:20.974Z,-3.10
2023-02-05T21:39:52.714Z,-3.00
2023-02-05T21:42:21.594Z,-2.90
2023-02-05T21:44:53.736Z,-2.80
2023-02-05T21:47:22.543Z,-2.80
2023-02-05T21:49:51.287Z,-2.70
2023-02-05T21:52:20.078Z,-2.80
2023-02-05T21:54:50.558Z,-2.80
2023-02-05T21:57:19.581Z,-2.80
2023-02-05T21:59:51.266Z,-2.90
2023-02-05T22:02:20.193Z,-3.00
2023-02-05T22:04:48.960Z,-2.90
2023-02-05T22:07:17.722Z,-2.80
2023-02-05T22:09:46.516Z,-2.80
2023-02-05T22:12:15.239Z,-2.70
2023-02-05T22:14:44.039Z,-2.80
2023-02-05T22:17:14.133Z,-2.80
2023-02-05T22:19:43.234Z,-2.80
2023-02-05T22:22:12.064Z,-2.70
2023-02-05T22:24:41.000Z,-2.70
2023-02-05T22:27:09.946Z,-2.60
2023-02-05T22:29:38.708Z,-2.60
2023-02-05T22:32:07.419Z,-2.60
2023-02-05T22:34:37.814Z,-2.60
2023-02-05T22:37:06.638Z,-2.60
2023-02-05T22:39:35.464Z,-2.50
2023-02-05T22:42:04.803Z,-2.50
2023-02-05T22:44:34.940Z,-2.50
2023-02-05T22:47:03.672Z,-2.60
2023-02-05T22:49:32.441Z,-2.60
2023-02-05T22:52:02.586Z,-2.60
2023-02-05T22:54:31.367Z,-2.60
2023-02-05T22:57:00.170Z,-2.60
2023-02-05T22:59:29.468Z,-2.60
2023-02-05T23:01:58.255Z,-2.50
2023-02-05T23:04:26.980Z,-2.40
2023-02-05T23:06:55.827Z,-2.40
2023-02-05T23:09:25.950Z,-2.40
2023-02-05T23:11:55.760Z,-2.40
2023-02-05T23:14:24.570Z,-2.40
2023-02-05T23:16:53.331Z,-2.50
2023-02-05T23:19:23.015Z,-2.50
2023-02-05T23:21:51.771Z,-2.60
2023-02-05T23:24:21.366Z,-2.50
2023-02-05T23:26:53.476Z,-2.50
2023-02-05T23:29:22.685Z,-2.40
2023-02-05T23:31:51.402Z,-2.50
2023-02-05T23:34:20.266Z,-2.50
2023-02-05T23:36:48.994Z,-2.50
2023-02-05T23:39:17.809Z,-2.60
2023-02-05T23:41:46.876Z,-2.60
2023-02-05T23:44:19.257Z,-2.60
2023-02-05T23:46:49.694Z,-2.60
2023-02-05T23:49:20.980Z,-2.50
2023-02-05T23:51:50.126Z,-2.50
2023-02-05T23:54:19.065Z,-2.50
2023-02-05T23:56:47.970Z,-2.50
2023-02-05T23:59:18.363Z,-2.60
